Merriam Woods Village, Missouri
Current Conditions -  °F | °C
As of 1:55 PM on Wednesday 17 Dec 2014 (Local Time) from KFWB Reporting Station
Light Rain Light Rain  
Wind Chill: 36°   Ceiling: Unl
Heat Index: 36°   Visibility: 9mi
Dew Point: 30°   Wind: 0mph
Humidity: 81%   Direction: NA
Pressure: 30.23"   Gusts: NA
Location:  36.7156°N, 93.1751°W
Report Text: KFWB 171955Z AUTO 00000KT 9SM -RA SCT070 02/M01 A3023 RMK AO2
Loading
Personal Weather Stations






























Interactive Weather Map New forecast layout! Learn more

10-Day Weather Forecast

Advertisements
Track Severe Weather on mobile